Time;durP1;ratioP1;P1;durP2;ratioP2;P2;SDS_P1;SDS_P2;PMS_P1;PMS_P2;Temp;Humidity;BMP_temperature;BMP_pressure;BME280_temperature;BME280_humidity;BME280_pressure;Samples;Min_cycle;Max_cycle;Signal;HPM_P1;HPM_P2
2022/01/20 01:22:45;;;;;;;4.73;3.10;;;5.00;99.90;;;;;;2998330;26;20703;-78
2022/01/20 01:28:00;;;;;;;4.30;3.60;;;5.00;99.90;;;;;;10297741;28;20331;-77
2022/01/20 03:02:14;;;;;;;7.77;5.03;;;4.10;99.90;;;;;;10309441;28;20325;-77
2022/01/20 03:07:49;;;;;;;7.07;4.57;;;4.10;99.90;;;;;;10351151;28;20318;-77
2022/01/20 03:46:09;;;;;;;;;;;;;;;;;;;;;
2022/01/20 04:08:30;;;;;;;9.00;4.23;;;4.70;99.90;;;;;;10367588;28;20249;-78
2022/01/20 05:01:12;;;;;;;11.37;4.03;;;3.60;99.90;;;;;;10533093;23;20661;-77
2022/01/20 05:28:42;;;;;;;10.43;4.70;;;3.80;99.90;;;;;;10347412;28;20356;-77
2022/01/20 05:33:51;;;;;;;12.90;4.40;;;3.80;99.90;;;;;;10350894;28;20636;-77
2022/01/20 05:44:03;;;;;;;12.00;4.50;;;3.90;99.90;;;;;;10353044;28;20271;-76
2022/01/20 05:54:20;;;;;;;14.93;4.17;;;4.00;99.90;;;;;;10385539;28;20720;-78
2022/01/20 05:59:32;;;;;;;11.13;3.90;;;4.10;99.90;;;;;;10386180;28;20239;-77
2022/01/20 06:04:44;;;;;;;12.57;4.40;;;4.20;99.90;;;;;;10384847;28;20253;-76
2022/01/20 06:09:49;;;;;;;14.33;3.90;;;4.20;99.90;;;;;;10384960;28;20225;-77
2022/01/20 06:14:56;;;;;;;12.23;3.07;;;4.20;99.90;;;;;;10380776;28;20222;-76
2022/01/20 06:20:06;;;;;;;10.87;2.90;;;4.00;99.90;;;;;;10388350;28;20232;-78
2022/01/20 06:25:22;;;;;;;10.57;3.03;;;3.80;99.90;;;;;;10362971;28;20747;-77
2022/01/20 06:30:31;;;;;;;14.70;3.40;;;3.60;99.90;;;;;;10377325;28;20328;-77
2022/01/20 06:35:35;;;;;;;16.93;5.10;;;3.50;99.90;;;;;;10359186;28;20236;-77
2022/01/20 06:40:44;;;;;;;11.00;3.70;;;3.40;99.90;;;;;;10386791;28;20720;-77
2022/01/20 06:45:48;;;;;;;9.67;3.70;;;3.20;99.90;;;;;;10372283;28;20226;-77
2022/01/20 06:51:21;;;;;;;12.07;3.63;;;3.10;99.90;;;;;;10494466;28;20587;-77
2022/01/20 06:56:33;;;;;;;11.77;3.90;;;3.30;99.90;;;;;;10397574;28;20656;-76
2022/01/20 07:01:39;;;;;;;14.80;3.43;;;3.40;99.90;;;;;;10380833;28;20226;-76
2022/01/20 07:06:44;;;;;;;15.80;3.50;;;3.60;99.90;;;;;;10391988;28;20884;-77
2022/01/20 07:12:08;;;;;;;12.60;3.27;;;3.80;99.90;;;;;;10395451;28;20220;-76
2022/01/20 07:17:16;;;;;;;17.93;3.40;;;3.90;99.90;;;;;;10388661;28;20216;-77
2022/01/20 07:22:29;;;;;;;16.30;3.57;;;3.90;99.90;;;;;;10400842;28;20224;-76
2022/01/20 07:27:39;;;;;;;16.87;3.33;;;3.80;99.90;;;;;;10393916;28;20225;-77
2022/01/20 07:33:05;;;;;;;14.20;3.93;;;3.60;99.90;;;;;;10390879;28;20216;-78
2022/01/20 07:38:12;;;;;;;17.90;4.57;;;3.50;99.90;;;;;;10388498;28;20225;-78
2022/01/20 07:43:15;;;;;;;13.40;2.63;;;3.50;99.90;;;;;;10387564;28;20221;-77
2022/01/20 07:53:33;;;;;;;11.30;3.20;;;3.60;99.90;;;;;;10324316;28;20246;-77
2022/01/20 07:58:45;;;;;;;13.63;3.00;;;3.90;99.90;;;;;;10290837;28;20226;-76
2022/01/20 08:03:56;;;;;;;9.30;3.17;;;4.20;99.90;;;;;;10269975;28;20226;-78
2022/01/20 08:09:03;;;;;;;6.43;2.17;;;4.60;99.90;;;;;;10260305;23;20230;-77
2022/01/20 08:14:10;;;;;;;8.90;2.30;;;4.90;99.90;;;;;;10351182;23;20248;-76
2022/01/20 08:24:25;;;;;;;7.57;2.10;;;5.00;99.90;;;;;;10292385;28;20286;-77
2022/01/20 08:29:32;;;;;;;8.53;2.10;;;5.00;99.90;;;;;;10276189;28;20637;-77
2022/01/20 08:34:38;;;;;;;5.63;2.03;;;5.10;99.90;;;;;;10360775;23;20261;-77
2022/01/20 08:39:45;;;;;;;9.57;2.30;;;5.10;99.90;;;;;;10403907;28;20259;-77
2022/01/20 08:44:55;;;;;;;7.53;1.90;;;5.30;99.90;;;;;;10401699;23;20249;-77
2022/01/20 08:55:16;;;;;;;6.47;1.93;;;5.30;99.90;;;;;;10362305;28;20380;-77
2022/01/20 09:00:44;;;;;;;10.43;2.20;;;5.80;99.90;;;;;;10363425;23;20234;-77
2022/01/20 09:05:52;;;;;;;9.10;2.23;;;7.50;99.90;;;;;;10261609;28;20241;-77
2022/01/20 09:16:14;;;;;;;6.90;1.47;;;8.70;99.90;;;;;;10351261;28;20246;-78
2022/01/20 09:21:22;;;;;;;6.73;1.60;;;7.90;99.90;;;;;;10358577;28;20300;-78
2022/01/20 09:32:12;;;;;;;2.77;1.63;;;6.90;99.90;;;;;;10239711;28;20233;-77
2022/01/20 09:37:14;;;;;;;5.53;1.53;;;8.30;99.90;;;;;;10254122;23;20239;-77
2022/01/20 09:42:18;;;;;;;4.00;1.20;;;13.30;99.90;;;;;;10370904;23;20718;-78
2022/01/20 09:47:24;;;;;;;4.70;1.40;;;13.80;94.90;;;;;;10358614;28;20375;-78
2022/01/20 09:57:35;;;;;;;6.43;1.83;;;9.40;99.90;;;;;;10252139;28;20232;-78
2022/01/20 10:02:37;;;;;;;9.17;1.97;;;8.50;99.90;;;;;;10242066;28;21140;-77
2022/01/20 10:07:43;;;;;;;8.53;1.87;;;8.20;99.90;;;;;;10244226;28;20245;-77
2022/01/20 10:12:45;;;;;;;7.70;2.07;;;7.80;99.90;;;;;;10232843;28;20227;-78
2022/01/20 10:23:27;;;;;;;7.00;1.83;;;12.70;99.90;;;;;;6652990;26;20224;-77
2022/01/20 10:28:58;;;;;;;5.37;1.60;;;17.40;79.70;;;;;;10343939;23;20242;-79
2022/01/20 10:34:28;;;;;;;4.97;1.70;;;19.20;54.20;;;;;;10376748;28;20256;-78
2022/01/20 10:55:30;;;;;;;9.43;2.30;;;14.00;59.00;;;;;;10306086;28;20280;-77
2022/01/20 11:00:47;;;;;;;5.83;1.70;;;12.20;64.80;;;;;;10314078;28;20316;-77
2022/01/20 11:05:57;;;;;;;9.10;2.00;;;10.80;70.30;;;;;;10307230;28;20682;-78
2022/01/20 11:16:08;;;;;;;6.10;1.97;;;9.70;78.20;;;;;;10340298;28;20236;-78
2022/01/20 11:21:11;;;;;;;5.40;1.60;;;9.00;83.20;;;;;;10321475;28;20857;-77
2022/01/20 11:26:24;;;;;;;7.47;1.87;;;8.40;87.50;;;;;;10315788;28;20224;-77
2022/01/20 11:36:42;;;;;;;11.07;2.00;;;7.90;90.30;;;;;;10321815;28;20241;-78
2022/01/20 11:41:51;;;;;;;8.93;2.10;;;7.60;91.70;;;;;;10307297;28;20231;-77
2022/01/20 11:47:05;;;;;;;5.70;1.80;;;7.50;91.50;;;;;;10300412;28;20230;-77
2022/01/20 11:52:09;;;;;;;11.00;4.10;;;7.40;92.50;;;;;;10305758;28;20222;-77
2022/01/20 11:57:31;;;;;;;8.83;1.93;;;7.00;94.70;;;;;;10310123;28;20219;-77
2022/01/20 12:02:38;;;;;;;7.67;1.87;;;6.60;95.50;;;;;;10304930;28;20337;-77
2022/01/20 12:12:46;;;;;;;9.73;2.17;;;6.30;96.60;;;;;;10356261;28;20261;-77
2022/01/20 12:17:58;;;;;;;7.67;1.73;;;6.50;97.60;;;;;;10402363;28;20218;-77
2022/01/20 12:23:00;;;;;;;5.90;1.70;;;6.50;97.70;;;;;;10362414;28;20234;-78
2022/01/20 12:28:11;;;;;;;5.97;1.40;;;6.80;96.10;;;;;;10367661;28;20225;-79
2022/01/20 12:33:21;;;;;;;7.17;2.00;;;6.80;96.50;;;;;;10375190;28;20217;-78
2022/01/20 12:38:36;;;;;;;9.57;1.87;;;6.70;98.30;;;;;;10359421;28;20909;-79
2022/01/20 12:43:51;;;;;;;6.30;2.07;;;6.90;98.50;;;;;;10364616;28;20253;-78
2022/01/20 12:49:09;;;;;;;11.03;2.20;;;7.10;99.70;;;;;;10363258;28;20223;-77
2022/01/20 12:54:26;;;;;;;8.60;2.27;;;7.30;99.90;;;;;;10344649;28;20224;-78
2022/01/20 12:59:31;;;;;;;6.40;1.87;;;7.30;99.90;;;;;;10349498;28;20229;-77
2022/01/20 13:04:36;;;;;;;5.87;2.10;;;7.30;98.90;;;;;;10341035;28;20221;-78
2022/01/20 13:09:41;;;;;;;7.77;1.53;;;7.00;99.90;;;;;;10348856;28;20294;-77
2022/01/20 13:14:56;;;;;;;5.53;1.63;;;6.60;99.90;;;;;;10342823;28;20284;-76
2022/01/20 13:20:20;;;;;;;9.37;2.23;;;6.00;99.90;;;;;;10355092;28;20218;-76
2022/01/20 13:25:25;;;;;;;3.90;1.53;;;5.40;99.90;;;;;;10340239;28;20216;-78
2022/01/20 13:30:47;;;;;;;5.17;1.40;;;5.10;99.90;;;;;;10360029;28;20327;-77
2022/01/20 13:35:56;;;;;;;5.03;1.27;;;5.10;99.90;;;;;;10354127;28;20221;-77
2022/01/20 13:41:12;;;;;;;4.00;1.30;;;5.20;99.90;;;;;;10359648;28;20244;-76
2022/01/20 13:46:28;;;;;;;3.97;1.70;;;5.20;99.90;;;;;;10349025;28;20672;-77
2022/01/20 13:51:31;;;;;;;5.80;2.87;;;5.20;99.90;;;;;;10344477;28;20319;-76
2022/01/20 13:56:55;;;;;;;3.93;1.63;;;5.40;99.90;;;;;;10356543;28;20684;-76
2022/01/20 14:02:01;;;;;;;4.97;1.30;;;5.40;99.90;;;;;;10348788;28;20225;-76
2022/01/20 14:07:14;;;;;;;3.20;1.30;;;5.40;99.90;;;;;;10329815;28;20226;-77
2022/01/20 14:12:29;;;;;;;3.30;1.60;;;5.30;99.90;;;;;;10316381;28;20297;-78
2022/01/20 14:17:49;;;;;;;4.80;1.87;;;5.20;99.90;;;;;;10356746;23;20225;-77
2022/01/20 14:22:53;;;;;;;7.30;2.00;;;4.90;99.90;;;;;;10374323;28;20248;-78
2022/01/20 14:27:59;;;;;;;9.93;2.10;;;4.80;99.90;;;;;;10384204;28;20283;-79
2022/01/20 14:33:12;;;;;;;5.67;1.70;;;4.80;99.90;;;;;;10379004;28;20213;-78
2022/01/20 14:38:21;;;;;;;5.70;1.60;;;4.60;99.90;;;;;;10379142;28;20627;-77
2022/01/20 14:43:26;;;;;;;5.97;1.93;;;4.50;99.90;;;;;;10367516;28;20279;-77
2022/01/20 14:48:39;;;;;;;5.70;1.70;;;4.30;99.90;;;;;;10373599;28;20229;-78
2022/01/20 14:53:50;;;;;;;3.90;1.40;;;4.20;99.90;;;;;;10383768;28;20284;-77
2022/01/20 14:59:02;;;;;;;5.50;1.77;;;4.20;99.90;;;;;;10368773;28;20217;-78
2022/01/20 15:04:07;;;;;;;5.30;1.80;;;4.20;99.90;;;;;;10376477;28;20225;-77
2022/01/20 15:09:30;;;;;;;7.73;1.70;;;4.40;99.90;;;;;;10364346;28;20225;-77
2022/01/20 15:14:37;;;;;;;9.33;2.00;;;4.50;99.90;;;;;;10377382;28;20252;-77
2022/01/20 15:19:49;;;;;;;5.00;1.97;;;4.50;99.90;;;;;;10380618;28;20244;-77
2022/01/20 15:24:55;;;;;;;9.87;2.13;;;4.40;99.90;;;;;;10380809;28;20776;-76
2022/01/20 15:30:01;;;;;;;6.23;2.30;;;4.30;99.90;;;;;;10365277;28;20572;-77
2022/01/20 15:35:04;;;;;;;10.33;2.67;;;4.30;99.90;;;;;;10372114;28;20225;-77
2022/01/20 15:40:12;;;;;;;8.57;2.07;;;4.40;99.90;;;;;;10362951;28;20236;-77
2022/01/20 15:45:27;;;;;;;8.83;2.40;;;4.40;99.90;;;;;;10376301;28;20264;-77
2022/01/20 15:50:37;;;;;;;6.90;2.00;;;4.50;99.90;;;;;;10378692;28;20228;-78
2022/01/20 15:55:53;;;;;;;6.30;1.87;;;4.50;99.90;;;;;;10384988;28;20264;-78
2022/01/20 16:00:58;;;;;;;7.10;2.10;;;4.60;99.90;;;;;;10382712;28;20221;-77
2022/01/20 16:06:10;;;;;;;12.53;3.10;;;4.60;99.90;;;;;;10377076;28;20648;-77
2022/01/20 16:11:16;;;;;;;9.90;2.50;;;4.60;99.90;;;;;;10366846;28;20274;-77
2022/01/20 16:16:22;;;;;;;9.60;2.40;;;4.60;99.90;;;;;;10378738;28;20261;-80
2022/01/20 16:21:28;;;;;;;11.00;2.90;;;4.50;99.90;;;;;;10371803;28;20236;-78
2022/01/20 16:26:41;;;;;;;10.93;2.77;;;4.60;99.90;;;;;;10359502;28;20240;-78
2022/01/20 16:31:43;;;;;;;8.50;2.43;;;4.50;99.90;;;;;;10383766;28;20375;-77
2022/01/20 16:36:46;;;;;;;7.87;2.17;;;4.50;99.90;;;;;;10380881;28;20229;-78
2022/01/20 16:41:57;;;;;;;11.13;2.30;;;4.40;99.90;;;;;;10378269;28;20233;-77
2022/01/20 16:47:07;;;;;;;9.37;2.40;;;4.30;99.90;;;;;;10382639;28;20248;-77
2022/01/20 16:52:12;;;;;;;9.97;2.67;;;4.20;99.90;;;;;;10372876;28;20605;-77
2022/01/20 16:57:22;;;;;;;8.03;2.23;;;4.10;99.90;;;;;;10379221;28;20354;-77
2022/01/20 17:02:33;;;;;;;7.60;2.10;;;3.90;99.90;;;;;;10385065;28;20279;-76
2022/01/20 17:07:40;;;;;;;13.10;2.63;;;3.80;99.90;;;;;;10380870;28;20241;-77
2022/01/20 17:12:43;;;;;;;8.03;2.53;;;3.80;99.90;;;;;;10373800;28;20216;-77
2022/01/20 17:17:50;;;;;;;10.83;3.17;;;3.80;99.90;;;;;;10373182;28;20319;-76
2022/01/20 17:23:02;;;;;;;12.47;2.83;;;3.80;99.90;;;;;;10382234;28;20596;-76
2022/01/20 17:28:05;;;;;;;9.47;2.53;;;3.90;99.90;;;;;;10384208;28;20221;-77
2022/01/20 17:33:11;;;;;;;9.10;3.57;;;3.80;99.90;;;;;;10373521;28;20221;-77
2022/01/20 17:38:18;;;;;;;12.13;2.67;;;3.80;99.90;;;;;;10365281;28;20237;-77
2022/01/20 17:43:28;;;;;;;8.50;2.63;;;3.60;99.90;;;;;;10372290;28;20998;-77
2022/01/20 17:48:41;;;;;;;14.60;2.57;;;3.60;99.90;;;;;;10365932;28;20226;-76
2022/01/20 17:53:46;;;;;;;12.43;2.83;;;3.40;99.90;;;;;;10372260;28;20244;-77
2022/01/20 17:58:52;;;;;;;12.23;2.70;;;3.20;99.90;;;;;;10359431;28;20217;-77
2022/01/20 18:03:56;;;;;;;11.90;2.83;;;3.10;99.90;;;;;;10380096;28;20230;-76
2022/01/20 18:09:00;;;;;;;9.67;2.90;;;3.10;99.90;;;;;;10378340;28;20233;-77
2022/01/20 18:14:06;;;;;;;6.87;2.67;;;3.10;99.90;;;;;;10358303;28;20228;-77
2022/01/20 18:19:12;;;;;;;9.67;3.17;;;3.20;99.90;;;;;;10378042;28;20245;-77
2022/01/20 18:24:18;;;;;;;11.57;3.87;;;3.30;99.90;;;;;;10373013;28;20264;-77
2022/01/20 18:29:26;;;;;;;10.73;3.43;;;3.30;99.90;;;;;;10366957;28;20233;-77
2022/01/20 18:34:36;;;;;;;6.33;2.90;;;3.10;99.90;;;;;;10368765;28;20233;-76
2022/01/20 18:39:42;;;;;;;7.47;2.87;;;2.90;99.90;;;;;;10378912;28;20434;-77
2022/01/20 18:44:54;;;;;;;12.67;4.00;;;2.80;99.90;;;;;;10374096;28;20305;-78
2022/01/20 18:50:08;;;;;;;14.80;4.40;;;2.60;99.90;;;;;;10363294;28;20283;-76
2022/01/20 18:55:14;;;;;;;11.63;4.47;;;2.60;99.90;;;;;;10355811;28;20302;-77
2022/01/20 19:00:21;;;;;;;11.40;3.87;;;2.60;99.90;;;;;;10376633;28;20194;-77
2022/01/20 19:05:27;;;;;;;10.67;3.80;;;2.70;99.90;;;;;;10372599;28;20234;-77
2022/01/20 19:10:33;;;;;;;12.33;3.87;;;2.80;99.90;;;;;;10371598;28;20241;-76
2022/01/20 19:20:39;;;;;;;14.83;4.73;;;3.10;99.90;;;;;;10270523;28;20234;-76
2022/01/20 19:25:45;;;;;;;9.60;3.73;;;3.30;99.90;;;;;;10275314;28;20222;-77
2022/01/20 19:31:01;;;;;;;6.80;3.70;;;3.40;99.90;;;;;;10279170;28;20229;-77
2022/01/20 19:36:08;;;;;;;10.90;3.50;;;3.40;99.90;;;;;;10274498;28;20293;-78
2022/01/20 19:41:12;;;;;;;12.67;5.13;;;3.30;99.90;;;;;;10278818;28;20225;-77
2022/01/20 19:46:14;;;;;;;7.37;3.10;;;3.10;99.90;;;;;;10280253;28;20221;-76
2022/01/20 19:51:18;;;;;;;9.80;4.33;;;3.00;99.90;;;;;;10281669;28;20234;-75
2022/01/20 19:56:18;;;;;;;9.87;3.33;;;3.00;99.90;;;;;;10285852;28;20761;-74
2022/01/20 20:01:19;;;;;;;10.10;3.03;;;3.10;99.90;;;;;;10291862;28;20218;-74
2022/01/20 20:06:20;;;;;;;7.77;3.50;;;3.20;99.90;;;;;;10304792;28;20225;-74
2022/01/20 20:11:21;;;;;;;8.43;3.33;;;3.30;99.90;;;;;;10294089;28;20226;-75
2022/01/20 20:16:28;;;;;;;8.23;3.80;;;3.30;99.90;;;;;;10293235;28;20222;-76
2022/01/20 20:21:32;;;;;;;8.73;3.17;;;3.20;99.90;;;;;;10294517;28;20242;-74
2022/01/20 20:26:35;;;;;;;9.73;3.20;;;3.10;99.90;;;;;;10296787;28;20297;-77
2022/01/20 20:31:36;;;;;;;8.60;2.97;;;3.10;99.90;;;;;;10294931;28;20246;-74
2022/01/20 20:37:28;;;;;;;9.90;3.30;;;3.20;99.90;;;;;;10308009;28;20198;-81
2022/01/20 20:42:31;;;;;;;9.67;2.50;;;3.30;99.90;;;;;;10293643;28;20211;-75
2022/01/20 20:47:55;;;;;;;;;;;;;;;;;;;;;
2022/01/20 20:52:58;;;;;;;9.37;3.20;;;3.40;99.90;;;;;;10269239;28;20261;-76
2022/01/20 20:57:59;;;;;;;10.27;3.40;;;3.20;99.90;;;;;;10292858;28;20678;-75
2022/01/20 21:03:00;;;;;;;12.87;3.40;;;2.90;99.90;;;;;;10300588;28;20258;-75
2022/01/20 21:08:11;;;;;;;12.30;4.87;;;2.80;99.90;;;;;;10295295;28;20282;-77
2022/01/20 21:13:43;;;;;;;;;;;;;;;;;;;;;
2022/01/20 21:18:44;;;;;;;8.97;3.43;;;2.70;99.90;;;;;;10349831;23;20237;-76
2022/01/20 21:23:45;;;;;;;10.00;3.97;;;2.60;99.90;;;;;;10311834;28;20590;-77
2022/01/20 21:28:49;;;;;;;9.80;3.57;;;2.50;99.90;;;;;;10315392;28;20246;-77
2022/01/20 21:33:52;;;;;;;12.67;4.73;;;2.50;99.90;;;;;;10311354;28;20326;-75
2022/01/20 21:38:53;;;;;;;13.00;5.40;;;2.50;99.90;;;;;;10330808;28;20840;-74
2022/01/20 21:43:54;;;;;;;10.33;4.30;;;2.60;99.90;;;;;;10334538;28;20224;-77
2022/01/20 21:48:55;;;;;;;10.90;4.53;;;2.80;99.90;;;;;;10322000;28;20228;-80
2022/01/20 21:53:56;;;;;;;12.67;4.40;;;2.90;99.90;;;;;;10341692;28;20284;-76
2022/01/20 21:58:57;;;;;;;8.17;4.10;;;3.00;99.90;;;;;;10315869;28;20284;-77
2022/01/20 22:03:58;;;;;;;13.00;5.90;;;3.10;99.90;;;;;;10312390;28;20244;-76
2022/01/20 22:08:58;;;;;;;9.50;4.40;;;3.20;99.90;;;;;;10311391;28;20678;-75
2022/01/20 22:13:59;;;;;;;7.07;4.23;;;3.20;99.90;;;;;;10309078;28;20279;-77
2022/01/20 22:19:00;;;;;;;8.17;3.63;;;3.20;99.90;;;;;;10327221;28;20284;-77
2022/01/20 22:24:01;;;;;;;9.53;4.03;;;3.20;99.90;;;;;;10337200;28;20221;-79
2022/01/20 22:29:05;;;;;;;10.73;4.40;;;3.10;99.90;;;;;;10308678;28;20248;-76
2022/01/20 22:34:09;;;;;;;10.83;5.13;;;3.20;99.90;;;;;;10311737;28;20645;-79
2022/01/20 22:39:09;;;;;;;10.13;4.20;;;3.20;99.90;;;;;;10316983;28;20218;-77
2022/01/20 22:44:10;;;;;;;11.00;4.23;;;3.30;99.90;;;;;;10322619;28;20288;-77
2022/01/20 22:49:13;;;;;;;10.43;3.90;;;3.30;99.90;;;;;;10338025;28;20241;-78
2022/01/20 22:54:14;;;;;;;6.73;3.53;;;3.40;99.90;;;;;;10331605;28;20229;-77
2022/01/20 22:59:16;;;;;;;12.43;4.27;;;3.40;99.90;;;;;;10320335;28;20285;-77
2022/01/20 23:04:16;;;;;;;13.17;4.20;;;3.50;99.90;;;;;;10317843;28;20690;-78
2022/01/20 23:09:19;;;;;;;11.70;3.80;;;3.50;99.90;;;;;;10312128;28;20217;-77
2022/01/20 23:14:23;;;;;;;8.87;3.47;;;3.50;99.90;;;;;;10311862;28;20242;-78
2022/01/20 23:24:29;;;;;;;10.10;3.77;;;3.40;99.90;;;;;;10331447;28;20222;-78
2022/01/20 23:29:29;;;;;;;14.93;4.07;;;3.50;99.90;;;;;;10311644;28;20269;-77
2022/01/20 23:34:32;;;;;;;7.23;3.70;;;3.50;99.90;;;;;;10337197;28;20224;-77
2022/01/20 23:39:39;;;;;;;7.93;3.30;;;3.50;99.90;;;;;;10332431;28;20228;-78
2022/01/20 23:44:55;;;;;;;8.37;3.50;;;3.40;99.90;;;;;;10330771;28;20218;-76
2022/01/20 23:49:57;;;;;;;8.00;3.43;;;3.40;99.90;;;;;;10318360;28;20224;-75
2022/01/20 23:54:58;;;;;;;12.30;3.27;;;3.50;99.90;;;;;;10336201;28;20220;-75
2022/01/20 23:59:59;;;;;;;11.20;3.60;;;3.40;99.90;;;;;;10315307;28;20282;-77
